sensor_id;sensor_type;location;lat;lon;timestamp;pressure;altitude;pressure_sealevel;temperature;humidity
28000;BME280;15328;50.860;10.562;2022-07-29T00:01:50;96703.41;;;19.40;36.35
28000;BME280;15328;50.860;10.562;2022-07-29T00:06:52;96700.97;;;19.43;36.36
28000;BME280;15328;50.860;10.562;2022-07-29T00:11:53;96693.44;;;19.45;36.65
28000;BME280;15328;50.860;10.562;2022-07-29T00:16:55;96686.13;;;19.41;36.68
28000;BME280;15328;50.860;10.562;2022-07-29T00:21:55;96678.59;;;19.38;36.86
28000;BME280;15328;50.860;10.562;2022-07-29T00:26:55;96676.44;;;19.35;36.95
28000;BME280;15328;50.860;10.562;2022-07-29T00:31:56;96666.97;;;19.27;37.07
28000;BME280;15328;50.860;10.562;2022-07-29T00:36:56;96665.34;;;19.21;37.63
28000;BME280;15328;50.860;10.562;2022-07-29T00:41:57;96662.94;;;19.20;37.46
28000;BME280;15328;50.860;10.562;2022-07-29T00:46:57;96663.19;;;19.18;37.83
28000;BME280;15328;50.860;10.562;2022-07-29T00:51:57;96656.69;;;19.14;38.06
28000;BME280;15328;50.860;10.562;2022-07-29T00:56:59;96647.81;;;19.13;38.09
28000;BME280;15328;50.860;10.562;2022-07-29T01:02:00;96637.00;;;19.08;38.24
28000;BME280;15328;50.860;10.562;2022-07-29T01:07:01;96628.66;;;19.10;38.09
28000;BME280;15328;50.860;10.562;2022-07-29T01:12:02;96623.25;;;19.05;38.31
28000;BME280;15328;50.860;10.562;2022-07-29T01:27:55;96612.16;;;18.81;38.59
28000;BME280;15328;50.860;10.562;2022-07-29T01:33:04;96604.59;;;18.78;38.77
28000;BME280;15328;50.860;10.562;2022-07-29T01:38:14;96610.22;;;18.66;38.84
28000;BME280;15328;50.860;10.562;2022-07-29T01:43:21;96599.66;;;18.60;38.42
28000;BME280;15328;50.860;10.562;2022-07-29T01:53:31;96603.16;;;18.55;39.05
28000;BME280;15328;50.860;10.562;2022-07-29T01:58:36;96595.84;;;18.50;39.27
28000;BME280;15328;50.860;10.562;2022-07-29T02:03:41;96606.09;;;18.48;38.55
28000;BME280;15328;50.860;10.562;2022-07-29T02:08:44;96596.38;;;18.42;38.84
28000;BME280;15328;50.860;10.562;2022-07-29T02:13:47;96593.19;;;18.56;38.86
28000;BME280;15328;50.860;10.562;2022-07-29T02:18:51;96588.59;;;18.61;38.97
28000;BME280;15328;50.860;10.562;2022-07-29T02:23:53;96580.88;;;18.65;38.75
28000;BME280;15328;50.860;10.562;2022-07-29T02:28:56;96578.88;;;18.45;38.74
28000;BME280;15328;50.860;10.562;2022-07-29T02:33:58;96572.13;;;18.42;38.84
28000;BME280;15328;50.860;10.562;2022-07-29T02:39:01;96559.75;;;18.46;38.83
28000;BME280;15328;50.860;10.562;2022-07-29T02:44:06;96568.66;;;18.47;38.79
28000;BME280;15328;50.860;10.562;2022-07-29T02:49:15;96564.00;;;18.32;39.38
28000;BME280;15328;50.860;10.562;2022-07-29T02:54:41;96561.53;;;18.20;39.43
28000;BME280;15328;50.860;10.562;2022-07-29T02:59:44;96565.31;;;18.25;39.67
28000;BME280;15328;50.860;10.562;2022-07-29T03:04:46;96558.59;;;18.27;39.23
28000;BME280;15328;50.860;10.562;2022-07-29T03:09:49;96562.63;;;18.19;39.21
28000;BME280;15328;50.860;10.562;2022-07-29T03:14:51;96572.03;;;18.17;39.56
28000;BME280;15328;50.860;10.562;2022-07-29T03:19:52;96558.03;;;18.20;39.60
28000;BME280;15328;50.860;10.562;2022-07-29T03:24:53;96558.22;;;18.03;39.76
28000;BME280;15328;50.860;10.562;2022-07-29T03:29:53;96560.13;;;18.08;39.58
28000;BME280;15328;50.860;10.562;2022-07-29T03:34:53;96557.75;;;18.16;39.59
28000;BME280;15328;50.860;10.562;2022-07-29T03:39:56;96552.38;;;18.11;39.67
28000;BME280;15328;50.860;10.562;2022-07-29T03:44:58;96543.63;;;17.89;40.06
28000;BME280;15328;50.860;10.562;2022-07-29T03:50:06;96549.44;;;17.71;40.42
28000;BME280;15328;50.860;10.562;2022-07-29T03:55:07;96544.94;;;17.81;40.46
28000;BME280;15328;50.860;10.562;2022-07-29T04:00:09;96554.31;;;17.79;40.36
28000;BME280;15328;50.860;10.562;2022-07-29T04:05:13;96534.41;;;17.75;40.85
28000;BME280;15328;50.860;10.562;2022-07-29T04:10:15;96550.78;;;17.73;40.98
28000;BME280;15328;50.860;10.562;2022-07-29T04:15:15;96544.25;;;17.59;41.16
28000;BME280;15328;50.860;10.562;2022-07-29T04:20:16;96555.25;;;17.57;41.01
28000;BME280;15328;50.860;10.562;2022-07-29T04:25:17;96553.53;;;17.41;41.38
28000;BME280;15328;50.860;10.562;2022-07-29T04:30:17;96551.84;;;17.30;41.95
28000;BME280;15328;50.860;10.562;2022-07-29T04:35:21;96560.19;;;17.34;41.95
28000;BME280;15328;50.860;10.562;2022-07-29T04:40:22;96556.22;;;17.46;41.35
28000;BME280;15328;50.860;10.562;2022-07-29T04:45:22;96555.25;;;17.57;41.69
28000;BME280;15328;50.860;10.562;2022-07-29T04:50:23;96559.38;;;17.70;42.01
28000;BME280;15328;50.860;10.562;2022-07-29T04:55:23;96559.44;;;17.80;42.02
28000;BME280;15328;50.860;10.562;2022-07-29T05:00:24;96564.78;;;17.75;41.97
28000;BME280;15328;50.860;10.562;2022-07-29T05:05:25;96560.94;;;17.66;41.75
28000;BME280;15328;50.860;10.562;2022-07-29T05:10:25;96570.19;;;17.80;41.67
28000;BME280;15328;50.860;10.562;2022-07-29T05:15:25;96556.53;;;17.82;41.56
28000;BME280;15328;50.860;10.562;2022-07-29T05:20:26;96555.53;;;18.03;41.26
28000;BME280;15328;50.860;10.562;2022-07-29T05:25:28;96560.97;;;18.08;41.25
28000;BME280;15328;50.860;10.562;2022-07-29T05:30:29;96557.22;;;18.19;41.58
28000;BME280;15328;50.860;10.562;2022-07-29T05:35:29;96551.88;;;18.30;42.07
28000;BME280;15328;50.860;10.562;2022-07-29T05:40:29;96552.75;;;18.40;42.06
28000;BME280;15328;50.860;10.562;2022-07-29T05:45:30;96560.31;;;18.59;41.11
28000;BME280;15328;50.860;10.562;2022-07-29T05:50:30;96560.03;;;18.55;40.91
28000;BME280;15328;50.860;10.562;2022-07-29T05:55:30;96562.56;;;18.72;40.98
28000;BME280;15328;50.860;10.562;2022-07-29T06:00:31;96575.53;;;18.90;40.28
28000;BME280;15328;50.860;10.562;2022-07-29T06:05:31;96570.16;;;18.95;40.11
28000;BME280;15328;50.860;10.562;2022-07-29T06:10:32;96567.47;;;19.10;39.82
28000;BME280;15328;50.860;10.562;2022-07-29T06:15:32;96570.72;;;19.28;39.60
28000;BME280;15328;50.860;10.562;2022-07-29T06:20:33;96572.34;;;19.54;39.08
28000;BME280;15328;50.860;10.562;2022-07-29T06:25:33;96565.31;;;19.79;38.54
28000;BME280;15328;50.860;10.562;2022-07-29T06:30:35;96576.06;;;20.04;37.90
28000;BME280;15328;50.860;10.562;2022-07-29T06:35:36;96564.59;;;20.37;37.58
28000;BME280;15328;50.860;10.562;2022-07-29T06:40:41;96560.69;;;20.69;37.29
28000;BME280;15328;50.860;10.562;2022-07-29T06:46:00;96564.69;;;20.77;36.46
28000;BME280;15328;50.860;10.562;2022-07-29T06:51:02;96566.53;;;20.86;36.38
28000;BME280;15328;50.860;10.562;2022-07-29T06:56:05;96575.41;;;20.92;36.29
28000;BME280;15328;50.860;10.562;2022-07-29T07:01:06;96583.72;;;21.01;36.46
28000;BME280;15328;50.860;10.562;2022-07-29T07:06:07;96586.44;;;21.01;36.31
28000;BME280;15328;50.860;10.562;2022-07-29T07:11:08;96580.69;;;21.12;36.10
28000;BME280;15328;50.860;10.562;2022-07-29T07:16:08;96585.94;;;21.38;35.67
28000;BME280;15328;50.860;10.562;2022-07-29T07:21:08;96587.44;;;21.54;35.37
28000;BME280;15328;50.860;10.562;2022-07-29T07:26:09;96585.16;;;21.66;35.01
28000;BME280;15328;50.860;10.562;2022-07-29T07:31:11;96588.53;;;21.82;34.31
28000;BME280;15328;50.860;10.562;2022-07-29T07:36:11;96586.91;;;21.81;34.36
28000;BME280;15328;50.860;10.562;2022-07-29T07:41:12;96576.78;;;22.20;34.54
28000;BME280;15328;50.860;10.562;2022-07-29T07:46:12;96578.50;;;22.59;33.93
28000;BME280;15328;50.860;10.562;2022-07-29T07:51:13;96576.88;;;22.82;32.72
28000;BME280;15328;50.860;10.562;2022-07-29T07:56:13;96588.94;;;23.27;32.45
28000;BME280;15328;50.860;10.562;2022-07-29T08:01:13;96585.31;;;23.51;32.14
28000;BME280;15328;50.860;10.562;2022-07-29T08:06:14;96588.72;;;23.61;31.75
28000;BME280;15328;50.860;10.562;2022-07-29T08:11:14;96581.16;;;23.58;31.77
28000;BME280;15328;50.860;10.562;2022-07-29T08:16:15;96568.09;;;23.60;31.73
28000;BME280;15328;50.860;10.562;2022-07-29T08:21:15;96579.00;;;23.55;31.60
28000;BME280;15328;50.860;10.562;2022-07-29T08:26:15;96587.00;;;23.65;32.15
28000;BME280;15328;50.860;10.562;2022-07-29T08:31:16;96581.41;;;23.76;31.95
28000;BME280;15328;50.860;10.562;2022-07-29T08:36:16;96575.19;;;23.89;32.32
28000;BME280;15328;50.860;10.562;2022-07-29T08:41:18;96587.72;;;24.17;31.61
28000;BME280;15328;50.860;10.562;2022-07-29T08:46:20;96587.94;;;24.34;30.81
28000;BME280;15328;50.860;10.562;2022-07-29T08:51:21;96591.16;;;24.37;30.72
28000;BME280;15328;50.860;10.562;2022-07-29T08:56:22;96588.75;;;24.35;30.51
28000;BME280;15328;50.860;10.562;2022-07-29T09:01:27;96577.88;;;24.49;30.54
28000;BME280;15328;50.860;10.562;2022-07-29T09:06:31;96580.69;;;24.71;30.43
28000;BME280;15328;50.860;10.562;2022-07-29T09:11:33;96586.03;;;25.26;30.09
28000;BME280;15328;50.860;10.562;2022-07-29T09:21:53;96587.75;;;25.89;28.89
28000;BME280;15328;50.860;10.562;2022-07-29T09:27:00;96582.13;;;25.85;28.22
28000;BME280;15328;50.860;10.562;2022-07-29T09:32:06;96580.16;;;25.77;28.15
28000;BME280;15328;50.860;10.562;2022-07-29T09:37:07;96576.88;;;25.67;28.16
28000;BME280;15328;50.860;10.562;2022-07-29T09:42:08;96586.56;;;25.59;28.49
28000;BME280;15328;50.860;10.562;2022-07-29T09:47:08;96573.22;;;25.49;27.96
28000;BME280;15328;50.860;10.562;2022-07-29T09:52:09;96578.94;;;25.47;28.81
28000;BME280;15328;50.860;10.562;2022-07-29T09:57:26;96570.41;;;25.40;28.68
28000;BME280;15328;50.860;10.562;2022-07-29T10:02:31;96561.56;;;25.35;28.69
28000;BME280;15328;50.860;10.562;2022-07-29T10:07:52;96558.84;;;25.35;28.94
28000;BME280;15328;50.860;10.562;2022-07-29T10:12:58;96553.03;;;25.27;30.78
28000;BME280;15328;50.860;10.562;2022-07-29T10:17:59;96551.97;;;25.15;33.68
28000;BME280;15328;50.860;10.562;2022-07-29T10:23:00;96550.00;;;25.07;34.96
28000;BME280;15328;50.860;10.562;2022-07-29T10:28:00;96541.94;;;25.02;35.30
28000;BME280;15328;50.860;10.562;2022-07-29T10:33:31;96542.56;;;24.99;35.39
28000;BME280;15328;50.860;10.562;2022-07-29T10:43:46;96545.28;;;24.85;38.78
28000;BME280;15328;50.860;10.562;2022-07-29T10:54:08;96527.59;;;24.74;41.19
28000;BME280;15328;50.860;10.562;2022-07-29T11:15:16;96520.91;;;24.93;39.14
28000;BME280;15328;50.860;10.562;2022-07-29T11:20:41;96525.00;;;25.05;38.22
28000;BME280;15328;50.860;10.562;2022-07-29T11:25:42;96525.56;;;25.15;36.48
28000;BME280;15328;50.860;10.562;2022-07-29T11:30:51;96528.47;;;25.41;35.56
28000;BME280;15328;50.860;10.562;2022-07-29T11:36:18;96523.75;;;26.17;33.69
28000;BME280;15328;50.860;10.562;2022-07-29T11:41:23;96520.53;;;26.55;31.10
28000;BME280;15328;50.860;10.562;2022-07-29T11:46:47;96519.28;;;26.96;28.94
28000;BME280;15328;50.860;10.562;2022-07-29T11:51:52;96519.81;;;27.15;27.75
28000;BME280;15328;50.860;10.562;2022-07-29T11:56:53;96517.78;;;27.85;26.48
28000;BME280;15328;50.860;10.562;2022-07-29T12:01:55;96518.09;;;28.59;25.46
28000;BME280;15328;50.860;10.562;2022-07-29T12:06:56;96503.94;;;29.08;24.03
28000;BME280;15328;50.860;10.562;2022-07-29T12:11:57;96503.28;;;28.90;23.88
28000;BME280;15328;50.860;10.562;2022-07-29T12:16:59;96498.81;;;29.06;23.63
28000;BME280;15328;50.860;10.562;2022-07-29T12:21:59;96498.25;;;29.13;23.68
28000;BME280;15328;50.860;10.562;2022-07-29T12:27:00;96501.22;;;29.08;24.15
28000;BME280;15328;50.860;10.562;2022-07-29T12:32:00;96492.53;;;29.39;23.48
28000;BME280;15328;50.860;10.562;2022-07-29T12:37:01;96480.94;;;29.87;22.86
28000;BME280;15328;50.860;10.562;2022-07-29T12:42:16;96475.97;;;30.13;22.24
28000;BME280;15328;50.860;10.562;2022-07-29T12:47:19;96482.22;;;30.38;22.51
28000;BME280;15328;50.860;10.562;2022-07-29T12:52:26;96467.25;;;30.60;21.34
28000;BME280;15328;50.860;10.562;2022-07-29T12:57:27;96460.91;;;31.12;21.63
28000;BME280;15328;50.860;10.562;2022-07-29T13:02:28;96466.84;;;31.26;20.92
28000;BME280;15328;50.860;10.562;2022-07-29T13:07:31;96459.19;;;31.63;20.94
28000;BME280;15328;50.860;10.562;2022-07-29T13:12:32;96464.16;;;31.58;20.67
28000;BME280;15328;50.860;10.562;2022-07-29T13:17:39;96458.63;;;31.86;20.54
28000;BME280;15328;50.860;10.562;2022-07-29T13:22:40;96456.22;;;31.84;20.56
28000;BME280;15328;50.860;10.562;2022-07-29T13:27:42;96449.75;;;31.92;20.39
28000;BME280;15328;50.860;10.562;2022-07-29T13:32:44;96442.75;;;32.11;19.79
28000;BME280;15328;50.860;10.562;2022-07-29T13:37:46;96437.78;;;32.51;19.71
28000;BME280;15328;50.860;10.562;2022-07-29T13:42:47;96436.56;;;32.49;19.65
28000;BME280;15328;50.860;10.562;2022-07-29T13:47:47;96434.75;;;31.74;20.03
28000;BME280;15328;50.860;10.562;2022-07-29T13:52:48;96435.22;;;31.32;20.65
28000;BME280;15328;50.860;10.562;2022-07-29T13:57:50;96421.22;;;30.82;21.42
28000;BME280;15328;50.860;10.562;2022-07-29T14:02:50;96419.00;;;30.35;21.72
28000;BME280;15328;50.860;10.562;2022-07-29T14:07:51;96418.38;;;30.13;21.95
28000;BME280;15328;50.860;10.562;2022-07-29T14:12:51;96418.53;;;29.72;22.46
28000;BME280;15328;50.860;10.562;2022-07-29T14:17:51;96416.94;;;29.59;23.40
28000;BME280;15328;50.860;10.562;2022-07-29T14:22:52;96425.34;;;29.53;23.66
28000;BME280;15328;50.860;10.562;2022-07-29T14:27:52;96413.81;;;29.48;24.21
28000;BME280;15328;50.860;10.562;2022-07-29T14:32:54;96409.56;;;29.38;23.46
28000;BME280;15328;50.860;10.562;2022-07-29T14:37:54;96417.03;;;29.17;23.18
28000;BME280;15328;50.860;10.562;2022-07-29T14:42:54;96417.13;;;29.08;23.72
28000;BME280;15328;50.860;10.562;2022-07-29T14:47:55;96417.19;;;29.00;23.81
28000;BME280;15328;50.860;10.562;2022-07-29T14:52:56;96419.81;;;28.96;24.29
28000;BME280;15328;50.860;10.562;2022-07-29T14:57:56;96409.06;;;28.91;23.99
28000;BME280;15328;50.860;10.562;2022-07-29T15:03:00;96402.22;;;28.85;24.30
28000;BME280;15328;50.860;10.562;2022-07-29T15:08:00;96409.34;;;28.77;24.43
28000;BME280;15328;50.860;10.562;2022-07-29T15:13:01;96399.84;;;28.75;24.26
28000;BME280;15328;50.860;10.562;2022-07-29T15:18:01;96396.16;;;28.71;24.79
28000;BME280;15328;50.860;10.562;2022-07-29T15:23:01;96390.78;;;28.83;24.33
28000;BME280;15328;50.860;10.562;2022-07-29T15:28:02;96394.78;;;28.85;24.64
28000;BME280;15328;50.860;10.562;2022-07-29T15:33:04;96393.66;;;28.86;24.50
28000;BME280;15328;50.860;10.562;2022-07-29T15:38:04;96379.34;;;28.81;24.21
28000;BME280;15328;50.860;10.562;2022-07-29T15:43:05;96380.88;;;28.70;24.82
28000;BME280;15328;50.860;10.562;2022-07-29T15:48:06;96387.19;;;28.49;25.02
28000;BME280;15328;50.860;10.562;2022-07-29T15:53:07;96385.19;;;28.38;25.89
28000;BME280;15328;50.860;10.562;2022-07-29T15:58:08;96392.66;;;28.28;26.71
28000;BME280;15328;50.860;10.562;2022-07-29T16:03:08;96388.47;;;27.93;27.20
28000;BME280;15328;50.860;10.562;2022-07-29T16:08:08;96393.13;;;27.72;27.55
28000;BME280;15328;50.860;10.562;2022-07-29T16:13:09;96376.56;;;27.59;28.34
28000;BME280;15328;50.860;10.562;2022-07-29T16:18:09;96376.47;;;27.47;28.22
28000;BME280;15328;50.860;10.562;2022-07-29T16:23:10;96386.44;;;27.43;28.48
28000;BME280;15328;50.860;10.562;2022-07-29T16:28:11;96384.38;;;27.31;28.98
28000;BME280;15328;50.860;10.562;2022-07-29T16:33:11;96375.41;;;27.31;29.34
28000;BME280;15328;50.860;10.562;2022-07-29T16:38:12;96365.69;;;27.13;29.77
28000;BME280;15328;50.860;10.562;2022-07-29T16:43:12;96368.41;;;27.13;30.15
28000;BME280;15328;50.860;10.562;2022-07-29T16:48:13;96374.03;;;26.99;30.25
28000;BME280;15328;50.860;10.562;2022-07-29T16:53:14;96384.44;;;26.97;30.47
28000;BME280;15328;50.860;10.562;2022-07-29T16:58:14;96388.16;;;26.84;31.04
28000;BME280;15328;50.860;10.562;2022-07-29T17:03:15;96394.41;;;26.84;31.25
28000;BME280;15328;50.860;10.562;2022-07-29T17:08:15;96392.31;;;26.81;31.04
28000;BME280;15328;50.860;10.562;2022-07-29T17:13:15;96397.00;;;26.72;31.16
28000;BME280;15328;50.860;10.562;2022-07-29T17:18:16;96392.03;;;26.65;31.60
28000;BME280;15328;50.860;10.562;2022-07-29T17:23:16;96393.63;;;26.66;31.29
28000;BME280;15328;50.860;10.562;2022-07-29T17:28:17;96394.13;;;26.42;31.37
28000;BME280;15328;50.860;10.562;2022-07-29T17:33:17;96395.19;;;26.15;32.43
28000;BME280;15328;50.860;10.562;2022-07-29T17:38:17;96395.00;;;26.03;33.09
28000;BME280;15328;50.860;10.562;2022-07-29T17:43:18;96401.53;;;25.94;33.64
28000;BME280;15328;50.860;10.562;2022-07-29T17:48:18;96406.81;;;25.81;34.45
28000;BME280;15328;50.860;10.562;2022-07-29T17:53:19;96422.59;;;25.71;35.00
28000;BME280;15328;50.860;10.562;2022-07-29T17:58:19;96443.13;;;25.46;36.44
28000;BME280;15328;50.860;10.562;2022-07-29T18:03:19;96462.75;;;24.89;39.01
28000;BME280;15328;50.860;10.562;2022-07-29T18:08:20;96452.94;;;24.80;39.94
28000;BME280;15328;50.860;10.562;2022-07-29T18:13:21;96473.59;;;24.03;43.30
28000;BME280;15328;50.860;10.562;2022-07-29T18:18:21;96481.94;;;23.66;44.28
28000;BME280;15328;50.860;10.562;2022-07-29T18:23:21;96493.00;;;23.37;45.73
28000;BME280;15328;50.860;10.562;2022-07-29T18:28:22;96489.34;;;22.95;46.62
28000;BME280;15328;50.860;10.562;2022-07-29T18:33:22;96497.47;;;22.76;47.75
28000;BME280;15328;50.860;10.562;2022-07-29T18:38:23;96496.94;;;22.56;48.68
28000;BME280;15328;50.860;10.562;2022-07-29T18:43:23;96502.63;;;22.35;50.26
28000;BME280;15328;50.860;10.562;2022-07-29T18:48:25;96496.09;;;21.41;53.89
28000;BME280;15328;50.860;10.562;2022-07-29T18:53:25;96485.41;;;21.54;53.83
28000;BME280;15328;50.860;10.562;2022-07-29T18:58:25;96471.09;;;21.20;55.38
28000;BME280;15328;50.860;10.562;2022-07-29T19:03:26;96479.78;;;21.17;55.29
28000;BME280;15328;50.860;10.562;2022-07-29T19:08:26;96486.75;;;20.50;58.71
28000;BME280;15328;50.860;10.562;2022-07-29T19:13:26;96493.78;;;20.46;58.96
28000;BME280;15328;50.860;10.562;2022-07-29T19:18:27;96506.41;;;20.01;61.59
28000;BME280;15328;50.860;10.562;2022-07-29T19:23:27;96516.44;;;19.85;62.61
28000;BME280;15328;50.860;10.562;2022-07-29T19:28:28;96526.19;;;19.76;62.69
28000;BME280;15328;50.860;10.562;2022-07-29T19:33:29;96533.94;;;19.93;61.61
28000;BME280;15328;50.860;10.562;2022-07-29T19:38:29;96581.19;;;20.00;61.31
28000;BME280;15328;50.860;10.562;2022-07-29T19:43:29;96600.81;;;20.21;60.83
28000;BME280;15328;50.860;10.562;2022-07-29T19:48:30;96622.75;;;20.04;61.42
28000;BME280;15328;50.860;10.562;2022-07-29T19:53:31;96631.16;;;19.88;62.46
28000;BME280;15328;50.860;10.562;2022-07-29T19:58:31;96626.28;;;19.90;61.98
28000;BME280;15328;50.860;10.562;2022-07-29T20:03:32;96639.00;;;19.79;62.82
28000;BME280;15328;50.860;10.562;2022-07-29T20:08:32;96645.75;;;19.77;62.77
28000;BME280;15328;50.860;10.562;2022-07-29T20:13:33;96662.47;;;19.73;63.22
28000;BME280;15328;50.860;10.562;2022-07-29T20:18:34;96674.06;;;19.74;62.85
28000;BME280;15328;50.860;10.562;2022-07-29T20:23:34;96678.09;;;19.61;62.82
28000;BME280;15328;50.860;10.562;2022-07-29T20:28:35;96664.03;;;19.44;62.55
28000;BME280;15328;50.860;10.562;2022-07-29T20:33:36;96654.03;;;19.24;63.27
28000;BME280;15328;50.860;10.562;2022-07-29T20:38:36;96633.78;;;19.17;63.43
28000;BME280;15328;50.860;10.562;2022-07-29T20:43:37;96617.91;;;19.25;62.67
28000;BME280;15328;50.860;10.562;2022-07-29T20:48:37;96617.59;;;19.17;62.56
28000;BME280;15328;50.860;10.562;2022-07-29T20:53:39;96615.19;;;19.10;62.66
28000;BME280;15328;50.860;10.562;2022-07-29T20:58:40;96603.53;;;18.89;63.40
28000;BME280;15328;50.860;10.562;2022-07-29T21:03:41;96600.56;;;18.80;63.65
28000;BME280;15328;50.860;10.562;2022-07-29T21:08:42;96586.72;;;18.62;64.04
28000;BME280;15328;50.860;10.562;2022-07-29T21:13:42;96574.44;;;18.86;63.32
28000;BME280;15328;50.860;10.562;2022-07-29T21:18:45;96565.00;;;18.89;63.13
28000;BME280;15328;50.860;10.562;2022-07-29T21:23:46;96570.38;;;18.89;62.82
28000;BME280;15328;50.860;10.562;2022-07-29T21:28:46;96563.41;;;18.93;62.76
28000;BME280;15328;50.860;10.562;2022-07-29T21:33:47;96553.97;;;19.10;61.87
28000;BME280;15328;50.860;10.562;2022-07-29T21:38:47;96562.34;;;19.14;61.85
28000;BME280;15328;50.860;10.562;2022-07-29T21:43:47;96561.56;;;19.24;61.33
28000;BME280;15328;50.860;10.562;2022-07-29T21:48:48;96557.50;;;19.36;61.54
28000;BME280;15328;50.860;10.562;2022-07-29T21:53:48;96556.41;;;19.37;61.71
28000;BME280;15328;50.860;10.562;2022-07-29T21:58:49;96553.69;;;19.42;61.49
28000;BME280;15328;50.860;10.562;2022-07-29T22:03:52;96560.19;;;19.41;61.67
28000;BME280;15328;50.860;10.562;2022-07-29T22:08:53;96551.81;;;19.43;61.26
28000;BME280;15328;50.860;10.562;2022-07-29T22:13:53;96553.19;;;19.45;61.41
28000;BME280;15328;50.860;10.562;2022-07-29T22:18:53;96545.34;;;19.39;61.17
28000;BME280;15328;50.860;10.562;2022-07-29T22:23:54;96541.56;;;19.35;61.50
28000;BME280;15328;50.860;10.562;2022-07-29T22:28:54;96529.44;;;19.27;61.52
28000;BME280;15328;50.860;10.562;2022-07-29T22:33:54;96534.03;;;19.11;61.84
28000;BME280;15328;50.860;10.562;2022-07-29T22:38:55;96522.97;;;19.08;62.43
28000;BME280;15328;50.860;10.562;2022-07-29T22:43:55;96521.91;;;18.99;62.39
28000;BME280;15328;50.860;10.562;2022-07-29T22:48:55;96524.56;;;18.83;62.64
28000;BME280;15328;50.860;10.562;2022-07-29T22:53:57;96519.44;;;18.77;62.64
28000;BME280;15328;50.860;10.562;2022-07-29T22:58:57;96511.09;;;18.78;63.04
28000;BME280;15328;50.860;10.562;2022-07-29T23:03:58;96508.97;;;18.91;62.89
28000;BME280;15328;50.860;10.562;2022-07-29T23:08:58;96519.19;;;18.83;62.97
28000;BME280;15328;50.860;10.562;2022-07-29T23:13:59;96523.00;;;18.93;62.86
28000;BME280;15328;50.860;10.562;2022-07-29T23:18:59;96523.50;;;18.84;63.16
28000;BME280;15328;50.860;10.562;2022-07-29T23:23:59;96515.41;;;18.74;63.58
28000;BME280;15328;50.860;10.562;2022-07-29T23:29:00;96520.78;;;18.69;63.59
28000;BME280;15328;50.860;10.562;2022-07-29T23:34:00;96518.66;;;18.76;63.20
28000;BME280;15328;50.860;10.562;2022-07-29T23:39:01;96528.34;;;18.88;63.22
28000;BME280;15328;50.860;10.562;2022-07-29T23:44:02;96540.50;;;18.95;62.96
28000;BME280;15328;50.860;10.562;2022-07-29T23:49:02;96539.44;;;18.91;63.32
28000;BME280;15328;50.860;10.562;2022-07-29T23:54:03;96538.34;;;18.92;62.96
28000;BME280;15328;50.860;10.562;2022-07-29T23:59:03;96532.16;;;19.02;62.91
